BCS10K EDDP-LEMD
Flight info
| Callsign | BCS10K |
|---|---|
| Flight time | N/A |
| Altitude | 35000 |
| Route | NEVKO Q243 BAMKI Z94 VAGAB Y231 AMOSA N869 NINTU UN869 REPSI DCT SOVET DCT TIVLI N869 ZAR Z245 TERSA |
| Aircraft | A333/H-SDE3GHIJ2J3J5M1RVWXY/LB2D1 |
Departure
| Time | 2026-05-07 10:11 |
|---|---|
| Airport | Leipzig/Halle Airport (EDDP) |
Arrival
| Time | N/A |
|---|---|
| Airport | Adolfo Suárez Madrid–Barajas Airport (LEMD) |
| Time | Latitude | Longitude | Altitude | Speed | Heading |
|---|---|---|---|---|---|
| 2026-05-07 09:39 | 51.40929 | 12.23090 | 472 ft | 0 kts | 266° |
| 2026-05-07 10:00 | 51.40930 | 12.23127 | 465 ft | 4 kts | 266° |
| 2026-05-07 10:00 | 51.40932 | 12.23171 | 466 ft | 4 kts | 266° |
| 2026-05-07 10:00 | 51.40933 | 12.23215 | 467 ft | 4 kts | 268° |
| 2026-05-07 10:00 | 51.40933 | 12.23255 | 467 ft | 3 kts | 278° |
| 2026-05-07 10:01 | 51.40929 | 12.23277 | 465 ft | 2 kts | 315° |
| 2026-05-07 10:01 | 51.40920 | 12.23286 | 467 ft | 2 kts | 351° |
| 2026-05-07 10:01 | 51.40912 | 12.23287 | 464 ft | 0 kts | 355° |
| 2026-05-07 10:04 | 51.40921 | 12.23286 | 467 ft | 3 kts | 355° |
| 2026-05-07 10:04 | 51.40951 | 12.23282 | 466 ft | 5 kts | 356° |
| 2026-05-07 10:04 | 51.40982 | 12.23278 | 467 ft | 4 kts | 356° |
| 2026-05-07 10:05 | 51.41013 | 12.23280 | 469 ft | 5 kts | 6° |
| 2026-05-07 10:05 | 51.41054 | 12.23285 | 471 ft | 7 kts | 1° |
| 2026-05-07 10:05 | 51.41087 | 12.23283 | 470 ft | 7 kts | 355° |
| 2026-05-07 10:05 | 51.41116 | 12.23236 | 470 ft | 8 kts | 283° |
| 2026-05-07 10:06 | 51.41114 | 12.23117 | 474 ft | 12 kts | 265° |
| 2026-05-07 10:06 | 51.41106 | 12.22946 | 471 ft | 18 kts | 266° |
| 2026-05-07 10:06 | 51.41096 | 12.22723 | 467 ft | 22 kts | 265° |
| 2026-05-07 10:06 | 51.41083 | 12.22469 | 463 ft | 24 kts | 265° |
| 2026-05-07 10:07 | 51.41072 | 12.22226 | 463 ft | 18 kts | 266° |
| 2026-05-07 10:07 | 51.41063 | 12.22026 | 463 ft | 19 kts | 265° |
| 2026-05-07 10:07 | 51.41053 | 12.21816 | 464 ft | 19 kts | 266° |
| 2026-05-07 10:07 | 51.41043 | 12.21601 | 461 ft | 21 kts | 265° |
| 2026-05-07 10:08 | 51.41031 | 12.21352 | 456 ft | 23 kts | 265° |
| 2026-05-07 10:08 | 51.41020 | 12.21116 | 452 ft | 21 kts | 265° |
| 2026-05-07 10:08 | 51.41009 | 12.20878 | 440 ft | 19 kts | 265° |
| 2026-05-07 10:08 | 51.41000 | 12.20706 | 430 ft | 15 kts | 265° |
| 2026-05-07 10:09 | 51.40994 | 12.20563 | 434 ft | 9 kts | 265° |
| 2026-05-07 10:09 | 51.41014 | 12.20486 | 431 ft | 8 kts | 330° |
| 2026-05-07 10:09 | 51.41063 | 12.20489 | 426 ft | 7 kts | 13° |
| 2026-05-07 10:09 | 51.41104 | 12.20504 | 441 ft | 5 kts | 13° |
| 2026-05-07 10:10 | 51.41132 | 12.20514 | 442 ft | 4 kts | 13° |
| 2026-05-07 10:10 | 51.41158 | 12.20548 | 427 ft | 7 kts | 57° |
| 2026-05-07 10:10 | 51.41170 | 12.20644 | 443 ft | 12 kts | 86° |
| 2026-05-07 10:10 | 51.41187 | 12.21014 | 449 ft | 62 kts | 85° |
| 2026-05-07 10:11 | 51.41233 | 12.22012 | 461 ft | 117 kts | 86° |
| 2026-05-07 10:11 | 51.41306 | 12.23575 | 476 ft | 164 kts | 85° |
| 2026-05-07 10:11 | 51.41393 | 12.25493 | 1022 ft | 171 kts | 83° |
| 2026-05-07 10:11 | 51.41465 | 12.27350 | 1875 ft | 172 kts | 84° |
| 2026-05-07 10:12 | 51.41541 | 12.29418 | 2221 ft | 200 kts | 84° |
| 2026-05-07 10:12 | 51.41642 | 12.31823 | 2431 ft | 232 kts | 84° |
| 2026-05-07 10:12 | 51.41762 | 12.34492 | 2951 ft | 246 kts | 84° |
| 2026-05-07 10:12 | 51.41891 | 12.37262 | 3593 ft | 255 kts | 85° |
| 2026-05-07 10:13 | 51.42027 | 12.40137 | 4286 ft | 262 kts | 85° |
| 2026-05-07 10:13 | 51.42166 | 12.43065 | 5075 ft | 265 kts | 85° |
| 2026-05-07 10:13 | 51.42308 | 12.46032 | 5910 ft | 268 kts | 84° |
| 2026-05-07 10:13 | 51.42378 | 12.49031 | 6771 ft | 272 kts | 93° |
| 2026-05-07 10:14 | 51.41866 | 12.51952 | 7586 ft | 278 kts | 118° |
| 2026-05-07 10:14 | 51.40545 | 12.54226 | 8371 ft | 286 kts | 147° |
| 2026-05-07 10:14 | 51.38701 | 12.55232 | 9212 ft | 286 kts | 173° |
| 2026-05-07 10:14 | 51.36698 | 12.55523 | 10118 ft | 286 kts | 178° |
| 2026-05-07 10:15 | 51.34660 | 12.55706 | 10607 ft | 302 kts | 178° |
| 2026-05-07 10:15 | 51.32519 | 12.55897 | 10917 ft | 322 kts | 178° |
| 2026-05-07 10:15 | 51.30230 | 12.56123 | 11396 ft | 335 kts | 178° |
| 2026-05-07 10:15 | 51.27895 | 12.56370 | 12086 ft | 339 kts | 178° |
| 2026-05-07 10:16 | 51.25525 | 12.56627 | 12827 ft | 343 kts | 178° |
| 2026-05-07 10:16 | 51.23129 | 12.56886 | 13564 ft | 347 kts | 178° |
| 2026-05-07 10:16 | 51.20709 | 12.56856 | 14257 ft | 349 kts | 187° |
| 2026-05-07 10:16 | 51.18335 | 12.56085 | 14936 ft | 350 kts | 199° |
| 2026-05-07 10:17 | 51.16115 | 12.54488 | 15650 ft | 351 kts | 212° |
| 2026-05-07 10:17 | 51.14165 | 12.52131 | 16353 ft | 354 kts | 224° |
| 2026-05-07 10:17 | 51.12587 | 12.49115 | 17055 ft | 356 kts | 237° |
| 2026-05-07 10:17 | 51.11458 | 12.45602 | 17743 ft | 360 kts | 247° |
| 2026-05-07 10:18 | 51.10601 | 12.41838 | 18415 ft | 363 kts | 250° |
| 2026-05-07 10:18 | 51.09784 | 12.38002 | 18995 ft | 369 kts | 250° |
| 2026-05-07 10:18 | 51.08951 | 12.34096 | 19498 ft | 375 kts | 250° |
| 2026-05-07 10:18 | 51.08098 | 12.30146 | 20060 ft | 378 kts | 250° |
| 2026-05-07 10:19 | 51.07517 | 12.27476 | 20429 ft | 379 kts | 250° |
| 2026-05-07 10:19 | 51.07386 | 12.26876 | 20510 ft | 380 kts | 250° |
| 2026-05-07 10:19 | 51.06651 | 12.23519 | 20948 ft | 382 kts | 250° |
| 2026-05-07 10:19 | 51.05771 | 12.19514 | 21436 ft | 386 kts | 249° |
| 2026-05-07 10:20 | 51.04880 | 12.15474 | 21959 ft | 389 kts | 249° |
| 2026-05-07 10:20 | 51.03980 | 12.11403 | 22463 ft | 392 kts | 249° |
| 2026-05-07 10:20 | 51.03071 | 12.07306 | 22942 ft | 395 kts | 249° |
| 2026-05-07 10:20 | 51.02153 | 12.03175 | 23422 ft | 399 kts | 249° |
| 2026-05-07 10:21 | 51.01225 | 11.99005 | 23841 ft | 402 kts | 249° |
| 2026-05-07 10:21 | 51.00289 | 11.94812 | 24243 ft | 404 kts | 249° |
| 2026-05-07 10:21 | 50.99347 | 11.90599 | 24602 ft | 408 kts | 249° |
| 2026-05-07 10:21 | 50.98395 | 11.86351 | 24967 ft | 411 kts | 249° |
| 2026-05-07 10:22 | 50.97430 | 11.82051 | 25282 ft | 416 kts | 249° |
| 2026-05-07 10:22 | 50.96452 | 11.77704 | 25642 ft | 419 kts | 248° |
| 2026-05-07 10:22 | 50.95464 | 11.73323 | 26047 ft | 422 kts | 249° |
| 2026-05-07 10:22 | 50.94473 | 11.68931 | 26446 ft | 425 kts | 248° |
| 2026-05-07 10:23 | 50.93471 | 11.64507 | 26826 ft | 427 kts | 248° |
| 2026-05-07 10:23 | 50.92462 | 11.60057 | 27210 ft | 430 kts | 248° |
| 2026-05-07 10:23 | 50.91445 | 11.55587 | 27568 ft | 433 kts | 248° |
| 2026-05-07 10:23 | 50.90419 | 11.51081 | 27930 ft | 436 kts | 248° |
| 2026-05-07 10:24 | 50.89384 | 11.46549 | 28293 ft | 439 kts | 248° |
| 2026-05-07 10:24 | 50.88342 | 11.41993 | 28630 ft | 441 kts | 248° |
| 2026-05-07 10:24 | 50.87291 | 11.37411 | 28970 ft | 444 kts | 248° |
| 2026-05-07 10:24 | 50.86160 | 11.32851 | 29320 ft | 446 kts | 243° |
| 2026-05-07 10:25 | 50.84654 | 11.28571 | 29679 ft | 446 kts | 234° |
| 2026-05-07 10:25 | 50.82875 | 11.24538 | 30034 ft | 448 kts | 232° |
| 2026-05-07 10:25 | 50.80999 | 11.20588 | 30333 ft | 450 kts | 231° |
| 2026-05-07 10:25 | 50.79083 | 11.16692 | 30725 ft | 451 kts | 231° |
| 2026-05-07 10:26 | 50.77148 | 11.12802 | 31190 ft | 449 kts | 231° |
| 2026-05-07 10:26 | 50.75209 | 11.08901 | 31532 ft | 451 kts | 231° |
| 2026-05-07 10:26 | 50.73242 | 11.05035 | 31806 ft | 453 kts | 227° |
| 2026-05-07 10:26 | 50.71011 | 11.01526 | 32087 ft | 454 kts | 220° |
| 2026-05-07 10:27 | 50.68529 | 10.98447 | 32483 ft | 453 kts | 216° |
| 2026-05-07 10:27 | 50.65993 | 10.95525 | 32907 ft | 451 kts | 215° |
| 2026-05-07 10:27 | 50.63427 | 10.92685 | 33331 ft | 450 kts | 214° |
| 2026-05-07 10:27 | 50.60854 | 10.89891 | 33727 ft | 449 kts | 214° |
| 2026-05-07 10:28 | 50.58267 | 10.87154 | 34083 ft | 448 kts | 212° |
| 2026-05-07 10:28 | 50.55569 | 10.84850 | 34364 ft | 448 kts | 205° |
| 2026-05-07 10:28 | 50.52673 | 10.83120 | 34666 ft | 449 kts | 197° |
| 2026-05-07 10:28 | 50.49619 | 10.82079 | 34897 ft | 450 kts | 188° |
| 2026-05-07 10:29 | 50.46494 | 10.81730 | 34947 ft | 439 kts | 182° |
| 2026-05-07 10:29 | 50.43480 | 10.81672 | 34958 ft | 428 kts | 181° |
| 2026-05-07 10:29 | 50.40560 | 10.81729 | 34948 ft | 425 kts | 180° |
| 2026-05-07 10:30 | 50.31645 | 10.82024 | 34948 ft | 426 kts | 180° |
| 2026-05-07 10:30 | 50.25762 | 10.82156 | 34958 ft | 426 kts | 181° |
| 2026-05-07 10:31 | 50.19853 | 10.82252 | 34960 ft | 425 kts | 181° |
| 2026-05-07 10:31 | 50.13918 | 10.82339 | 34956 ft | 426 kts | 181° |
| 2026-05-07 10:32 | 50.08001 | 10.82428 | 34971 ft | 425 kts | 181° |
| 2026-05-07 10:32 | 50.02084 | 10.82517 | 34963 ft | 425 kts | 181° |
| 2026-05-07 10:33 | 49.96171 | 10.82606 | 34965 ft | 425 kts | 181° |
| 2026-05-07 10:33 | 49.90258 | 10.82694 | 34979 ft | 425 kts | 181° |
| 2026-05-07 10:34 | 49.84362 | 10.82782 | 34970 ft | 425 kts | 181° |
| 2026-05-07 10:34 | 49.78445 | 10.82871 | 34979 ft | 426 kts | 181° |
| 2026-05-07 10:35 | 49.72525 | 10.82802 | 34987 ft | 425 kts | 183° |
| 2026-05-07 10:35 | 49.66660 | 10.82375 | 34980 ft | 424 kts | 185° |
| 2026-05-07 10:36 | 49.60763 | 10.81882 | 34992 ft | 425 kts | 185° |
| 2026-05-07 10:36 | 49.54894 | 10.81042 | 34998 ft | 423 kts | 193° |
| 2026-05-07 10:37 | 49.49466 | 10.77777 | 34993 ft | 419 kts | 213° |
| 2026-05-07 10:37 | 49.45014 | 10.72031 | 35015 ft | 419 kts | 225° |
| 2026-05-07 10:38 | 49.40942 | 10.65615 | 35018 ft | 420 kts | 227° |
| 2026-05-07 10:38 | 49.36968 | 10.59059 | 35019 ft | 420 kts | 227° |
| 2026-05-07 10:39 | 49.32952 | 10.52556 | 35015 ft | 420 kts | 226° |
| 2026-05-07 10:39 | 49.28840 | 10.46222 | 35023 ft | 420 kts | 225° |
| 2026-05-07 10:40 | 49.24689 | 10.39922 | 35012 ft | 419 kts | 225° |
| 2026-05-07 10:40 | 49.20568 | 10.33605 | 35038 ft | 419 kts | 225° |
| 2026-05-07 10:41 | 49.16475 | 10.27258 | 35024 ft | 419 kts | 226° |
| 2026-05-07 10:41 | 49.12597 | 10.20621 | 35025 ft | 419 kts | 230° |
| 2026-05-07 10:42 | 49.08914 | 10.13718 | 35016 ft | 420 kts | 231° |
| 2026-05-07 10:42 | 49.05258 | 10.06771 | 35006 ft | 420 kts | 232° |
| 2026-05-07 10:43 | 49.01601 | 9.99841 | 35024 ft | 419 kts | 231° |
| 2026-05-07 10:43 | 48.97935 | 9.92931 | 35010 ft | 419 kts | 231° |
| 2026-05-07 10:44 | 48.94264 | 9.86037 | 35015 ft | 419 kts | 231° |
| 2026-05-07 10:44 | 48.90588 | 9.79153 | 35023 ft | 419 kts | 231° |
| 2026-05-07 10:45 | 48.86907 | 9.72277 | 35015 ft | 419 kts | 231° |
| 2026-05-07 10:45 | 48.83252 | 9.65469 | 35001 ft | 419 kts | 231° |
| 2026-05-07 10:46 | 48.79561 | 9.58613 | 35015 ft | 420 kts | 231° |
| 2026-05-07 10:46 | 48.75862 | 9.51757 | 34995 ft | 420 kts | 231° |
| 2026-05-07 10:47 | 48.72160 | 9.44914 | 34995 ft | 420 kts | 231° |
| 2026-05-07 10:47 | 48.68457 | 9.38084 | 35001 ft | 420 kts | 231° |
| 2026-05-07 10:48 | 48.64750 | 9.31264 | 35020 ft | 420 kts | 231° |
| 2026-05-07 10:48 | 48.61075 | 9.24399 | 35021 ft | 420 kts | 233° |
| 2026-05-07 10:49 | 48.57656 | 9.17268 | 35019 ft | 419 kts | 236° |
| 2026-05-07 10:49 | 48.54311 | 9.10047 | 35018 ft | 419 kts | 236° |
| 2026-05-07 10:50 | 48.50950 | 9.02856 | 35006 ft | 420 kts | 236° |
| 2026-05-07 10:50 | 48.47556 | 8.95679 | 35009 ft | 420 kts | 235° |
| 2026-05-07 10:51 | 48.44152 | 8.88529 | 35010 ft | 420 kts | 235° |
| 2026-05-07 10:51 | 48.40740 | 8.81380 | 35010 ft | 420 kts | 235° |
| 2026-05-07 10:52 | 48.37906 | 8.75455 | 35018 ft | 420 kts | 235° |
| 2026-05-07 10:52 | 48.34485 | 8.68319 | 35018 ft | 420 kts | 235° |
| 2026-05-07 10:53 | 48.31066 | 8.61204 | 35019 ft | 420 kts | 235° |
| 2026-05-07 10:53 | 48.27084 | 8.52940 | 35022 ft | 420 kts | 235° |
| 2026-05-07 10:54 | 48.24214 | 8.47001 | 35022 ft | 420 kts | 235° |
| 2026-05-07 10:54 | 48.20779 | 8.39909 | 35024 ft | 420 kts | 235° |
| 2026-05-07 10:55 | 48.17054 | 8.33184 | 35024 ft | 421 kts | 223° |
| 2026-05-07 10:55 | 48.12233 | 8.28174 | 35016 ft | 423 kts | 212° |
| 2026-05-07 10:56 | 48.07073 | 8.23904 | 35026 ft | 424 kts | 210° |
| 2026-05-07 10:56 | 48.01889 | 8.19794 | 35026 ft | 424 kts | 210° |
| 2026-05-07 10:57 | 47.96677 | 8.15640 | 35032 ft | 424 kts | 210° |
| 2026-05-07 10:57 | 47.91484 | 8.11467 | 35028 ft | 424 kts | 210° |
| 2026-05-07 10:58 | 47.86300 | 8.07294 | 35028 ft | 423 kts | 210° |
| 2026-05-07 10:58 | 47.81112 | 8.03126 | 35030 ft | 423 kts | 210° |
| 2026-05-07 10:59 | 47.75931 | 7.98976 | 35027 ft | 423 kts | 210° |
| 2026-05-07 10:59 | 47.70739 | 7.94828 | 35025 ft | 423 kts | 210° |
| 2026-05-07 11:00 | 47.65558 | 7.90698 | 35034 ft | 423 kts | 210° |
| 2026-05-07 11:00 | 47.60373 | 7.86573 | 35039 ft | 423 kts | 210° |
| 2026-05-07 11:01 | 47.55193 | 7.82462 | 35037 ft | 423 kts | 210° |
| 2026-05-07 11:01 | 47.50003 | 7.78352 | 35038 ft | 423 kts | 211° |
| 2026-05-07 11:02 | 47.44824 | 7.74261 | 35038 ft | 422 kts | 210° |
| 2026-05-07 11:02 | 47.39641 | 7.70175 | 35035 ft | 422 kts | 210° |
| 2026-05-07 11:03 | 47.34456 | 7.66097 | 35031 ft | 422 kts | 211° |
| 2026-05-07 11:03 | 47.29726 | 7.61126 | 35028 ft | 416 kts | 227° |
| 2026-05-07 11:04 | 47.25951 | 7.54766 | 35022 ft | 415 kts | 233° |
| 2026-05-07 11:04 | 47.22353 | 7.48063 | 35020 ft | 415 kts | 233° |
| 2026-05-07 11:05 | 47.18801 | 7.41367 | 35020 ft | 415 kts | 233° |
| 2026-05-07 11:05 | 47.15256 | 7.34759 | 35021 ft | 415 kts | 233° |
| 2026-05-07 11:06 | 47.11664 | 7.28122 | 35021 ft | 414 kts | 233° |
| 2026-05-07 11:06 | 47.08076 | 7.21519 | 35023 ft | 414 kts | 233° |
| 2026-05-07 11:07 | 47.04479 | 7.14916 | 35032 ft | 414 kts | 233° |
| 2026-05-07 11:07 | 47.00884 | 7.08330 | 35021 ft | 414 kts | 233° |
| 2026-05-07 11:08 | 46.97280 | 7.01745 | 35019 ft | 414 kts | 233° |
| 2026-05-07 11:08 | 46.93682 | 6.95186 | 35020 ft | 413 kts | 233° |
| 2026-05-07 11:09 | 46.90086 | 6.88645 | 35020 ft | 412 kts | 233° |
| 2026-05-07 11:09 | 46.86493 | 6.82126 | 35020 ft | 412 kts | 233° |
| 2026-05-07 11:10 | 46.82890 | 6.75606 | 35020 ft | 412 kts | 233° |
| 2026-05-07 11:10 | 46.79288 | 6.69104 | 35019 ft | 412 kts | 233° |
| 2026-05-07 11:11 | 46.75680 | 6.62604 | 35014 ft | 411 kts | 233° |
| 2026-05-07 11:11 | 46.72067 | 6.56168 | 35012 ft | 410 kts | 232° |
| 2026-05-07 11:12 | 46.68312 | 6.49899 | 35012 ft | 410 kts | 231° |
| 2026-05-07 11:12 | 46.64511 | 6.43701 | 35013 ft | 411 kts | 231° |
| 2026-05-07 11:13 | 46.60707 | 6.37493 | 35011 ft | 411 kts | 231° |
| 2026-05-07 11:13 | 46.56917 | 6.31291 | 35009 ft | 411 kts | 231° |
| 2026-05-07 11:14 | 46.53121 | 6.25081 | 35006 ft | 411 kts | 231° |
| 2026-05-07 11:14 | 46.49328 | 6.18890 | 35008 ft | 411 kts | 231° |
| 2026-05-07 11:15 | 46.45527 | 6.12701 | 35008 ft | 410 kts | 231° |
| 2026-05-07 11:15 | 46.41728 | 6.06529 | 35013 ft | 411 kts | 231° |
| 2026-05-07 11:16 | 46.37923 | 6.00363 | 35014 ft | 409 kts | 231° |
| 2026-05-07 11:16 | 46.34138 | 5.94242 | 35018 ft | 408 kts | 231° |
| 2026-05-07 11:17 | 46.30439 | 5.88105 | 35019 ft | 406 kts | 236° |
| 2026-05-07 11:17 | 46.27155 | 5.81477 | 35018 ft | 405 kts | 238° |
| 2026-05-07 11:18 | 46.23969 | 5.74772 | 35016 ft | 405 kts | 238° |
| 2026-05-07 11:18 | 46.20795 | 5.68053 | 35014 ft | 404 kts | 238° |
| 2026-05-07 11:19 | 46.17623 | 5.61373 | 35012 ft | 403 kts | 238° |
| 2026-05-07 11:19 | 46.14439 | 5.54702 | 35011 ft | 403 kts | 238° |
| 2026-05-07 11:20 | 46.11258 | 5.48055 | 35010 ft | 403 kts | 238° |
| 2026-05-07 11:20 | 46.08069 | 5.41409 | 35012 ft | 403 kts | 238° |
| 2026-05-07 11:21 | 46.04880 | 5.34780 | 35037 ft | 403 kts | 238° |
| 2026-05-07 11:21 | 46.01688 | 5.28155 | 35023 ft | 402 kts | 238° |
| 2026-05-07 11:22 | 45.98504 | 5.21567 | 35022 ft | 401 kts | 238° |
| 2026-05-07 11:22 | 45.95316 | 5.14983 | 35021 ft | 401 kts | 238° |
| 2026-05-07 11:23 | 45.92128 | 5.08415 | 35024 ft | 401 kts | 237° |
| 2026-05-07 11:23 | 45.88932 | 5.01844 | 35041 ft | 401 kts | 237° |
| 2026-05-07 11:24 | 45.85735 | 4.95290 | 35029 ft | 401 kts | 237° |
| 2026-05-07 11:24 | 45.82540 | 4.88757 | 35043 ft | 399 kts | 237° |
| 2026-05-07 11:25 | 45.79358 | 4.82263 | 35048 ft | 398 kts | 237° |
| 2026-05-07 11:25 | 45.76192 | 4.75816 | 35046 ft | 398 kts | 237° |
| 2026-05-07 11:26 | 45.72981 | 4.69293 | 35048 ft | 398 kts | 237° |
| 2026-05-07 11:26 | 45.69806 | 4.62859 | 35026 ft | 398 kts | 237° |
| 2026-05-07 11:27 | 45.66611 | 4.56398 | 35015 ft | 398 kts | 237° |
| 2026-05-07 11:27 | 45.63415 | 4.49949 | 35022 ft | 397 kts | 237° |
| 2026-05-07 11:28 | 45.60226 | 4.43526 | 35019 ft | 397 kts | 237° |
| 2026-05-07 11:28 | 45.57029 | 4.37103 | 35020 ft | 397 kts | 236° |
| 2026-05-07 11:29 | 45.53827 | 4.30685 | 35021 ft | 397 kts | 236° |
| 2026-05-07 11:29 | 45.50583 | 4.24321 | 35023 ft | 397 kts | 235° |
| 2026-05-07 11:30 | 45.47248 | 4.18055 | 35019 ft | 397 kts | 234° |
| 2026-05-07 11:30 | 45.43896 | 4.11813 | 35020 ft | 396 kts | 234° |
| 2026-05-07 11:31 | 45.40551 | 4.05575 | 35017 ft | 396 kts | 234° |
| 2026-05-07 11:31 | 45.37212 | 3.99344 | 35011 ft | 396 kts | 234° |
| 2026-05-07 11:32 | 45.32199 | 3.90004 | 35012 ft | 396 kts | 234° |
| 2026-05-07 11:33 | 45.28852 | 3.83786 | 35013 ft | 395 kts | 234° |
| 2026-05-07 11:33 | 45.25512 | 3.77596 | 35015 ft | 395 kts | 234° |
| 2026-05-07 11:34 | 45.22161 | 3.71401 | 35002 ft | 395 kts | 234° |
| 2026-05-07 11:34 | 45.18831 | 3.65256 | 34999 ft | 395 kts | 234° |
| 2026-05-07 11:35 | 45.15456 | 3.59042 | 35002 ft | 395 kts | 234° |
| 2026-05-07 11:35 | 45.12102 | 3.52879 | 34992 ft | 395 kts | 234° |
| 2026-05-07 11:36 | 45.08765 | 3.46761 | 34996 ft | 395 kts | 234° |
| 2026-05-07 11:36 | 45.05401 | 3.40606 | 34996 ft | 395 kts | 234° |
| 2026-05-07 11:37 | 45.02038 | 3.34466 | 34999 ft | 395 kts | 234° |
| 2026-05-07 11:37 | 44.98668 | 3.28326 | 34996 ft | 395 kts | 234° |
| 2026-05-07 11:38 | 44.95300 | 3.22203 | 35009 ft | 395 kts | 234° |
| 2026-05-07 11:38 | 44.91925 | 3.16081 | 35000 ft | 395 kts | 233° |
| 2026-05-07 11:39 | 44.88555 | 3.09980 | 35001 ft | 394 kts | 233° |
| 2026-05-07 11:39 | 44.85176 | 3.03878 | 34994 ft | 395 kts | 233° |
| 2026-05-07 11:40 | 44.81795 | 2.97784 | 35010 ft | 395 kts | 233° |
| 2026-05-07 11:40 | 44.78402 | 2.91679 | 34992 ft | 396 kts | 233° |
| 2026-05-07 11:41 | 44.75008 | 2.85589 | 35013 ft | 396 kts | 233° |
| 2026-05-07 11:41 | 44.71629 | 2.79539 | 34998 ft | 396 kts | 233° |
| 2026-05-07 11:42 | 44.68228 | 2.73461 | 35004 ft | 396 kts | 233° |
| 2026-05-07 11:42 | 44.64819 | 2.67384 | 35005 ft | 396 kts | 233° |
| 2026-05-07 11:43 | 44.61410 | 2.61318 | 35019 ft | 396 kts | 233° |
| 2026-05-07 11:43 | 44.58567 | 2.56269 | 35000 ft | 397 kts | 233° |
| 2026-05-07 11:44 | 44.55146 | 2.50208 | 35005 ft | 396 kts | 232° |
| 2026-05-07 11:44 | 44.51718 | 2.44147 | 35023 ft | 396 kts | 232° |
| 2026-05-07 11:45 | 44.48287 | 2.38093 | 35008 ft | 396 kts | 232° |
| 2026-05-07 11:45 | 44.44858 | 2.32054 | 35022 ft | 397 kts | 232° |
| 2026-05-07 11:46 | 44.41424 | 2.26021 | 35015 ft | 397 kts | 232° |
| 2026-05-07 11:46 | 44.37977 | 2.19975 | 35017 ft | 398 kts | 232° |
| 2026-05-07 11:47 | 44.34522 | 2.13929 | 34995 ft | 398 kts | 232° |
| 2026-05-07 11:47 | 44.31068 | 2.07899 | 34994 ft | 398 kts | 232° |
| 2026-05-07 11:48 | 44.27606 | 2.01866 | 34991 ft | 398 kts | 232° |
| 2026-05-07 11:48 | 44.24146 | 1.95850 | 35007 ft | 398 kts | 232° |
| 2026-05-07 11:49 | 44.20678 | 1.89831 | 35005 ft | 398 kts | 231° |
| 2026-05-07 11:49 | 44.17208 | 1.83822 | 35005 ft | 399 kts | 231° |
| 2026-05-07 11:50 | 44.13725 | 1.77801 | 35006 ft | 399 kts | 231° |
| 2026-05-07 11:50 | 44.10243 | 1.71794 | 35006 ft | 399 kts | 231° |
| 2026-05-07 11:51 | 44.06753 | 1.65785 | 35004 ft | 399 kts | 231° |
| 2026-05-07 11:51 | 44.03266 | 1.59792 | 34990 ft | 399 kts | 231° |
| 2026-05-07 11:52 | 43.99773 | 1.53801 | 35000 ft | 399 kts | 231° |
| 2026-05-07 11:52 | 43.96280 | 1.47822 | 35002 ft | 400 kts | 231° |
| 2026-05-07 11:53 | 43.92766 | 1.41822 | 35004 ft | 401 kts | 231° |
| 2026-05-07 11:53 | 43.89252 | 1.35832 | 35006 ft | 401 kts | 231° |
| 2026-05-07 11:54 | 43.85731 | 1.29842 | 35009 ft | 401 kts | 231° |
| 2026-05-07 11:54 | 43.82211 | 1.23867 | 35000 ft | 401 kts | 230° |
| 2026-05-07 11:55 | 43.78682 | 1.17889 | 35010 ft | 401 kts | 230° |
| 2026-05-07 11:55 | 43.75155 | 1.11926 | 35011 ft | 401 kts | 230° |
| 2026-05-07 11:56 | 43.73983 | 1.09948 | 35009 ft | 402 kts | 230° |